Terminal Aerodrome Forecast
Issued by NWS Mt. Holly, NJ

Home | Current Version | Previous Version | Text Only | Print | Product List | Glossary On
Versions: 1 2 3 4 5 6 7 8 9 10 11 12 13 14 15 16 17 18 19
000
FTUS41 KPHI 200524
TAFILG
TAF
KILG 200524Z 2006/2106 28009KT P6SM SCT250
     FM201400 28012G21KT P6SM SKC
     FM202200 24006KT P6SM SKC
     FM210400 21006KT P6SM SKC=

USA.gov is the U.S. government's official web portal to all federal, state and local government web resources and services.